sensor_id;sensor_type;location;lat;lon;timestamp;noise_LAeq;noise_LA_min;noise_LA_max;noise_LA01;noise_LA95
46746;Laerm;32493;50.514;9.678;2022-11-20T00:00:07;111.10;36.03;119.87;;
46746;Laerm;32493;50.514;9.678;2022-11-20T00:02:12;110.34;39.01;114.70;;
46746;Laerm;32493;50.514;9.678;2022-11-20T00:04:17;110.37;42.50;114.70;;
46746;Laerm;32493;50.514;9.678;2022-11-20T00:06:23;110.42;40.06;114.51;;
46746;Laerm;32493;50.514;9.678;2022-11-20T00:08:29;110.39;24.36;114.60;;
46746;Laerm;32493;50.514;9.678;2022-11-20T00:10:39;110.41;36.70;114.62;;
46746;Laerm;32493;50.514;9.678;2022-11-20T00:12:44;110.46;42.41;114.65;;
46746;Laerm;32493;50.514;9.678;2022-11-20T00:14:50;110.89;25.23;117.95;;
46746;Laerm;32493;50.514;9.678;2022-11-20T00:16:55;113.88;32.73;120.46;;
46746;Laerm;32493;50.514;9.678;2022-11-20T00:19:00;112.65;34.80;119.70;;
46746;Laerm;32493;50.514;9.678;2022-11-20T00:21:09;110.63;32.77;114.53;;
46746;Laerm;32493;50.514;9.678;2022-11-20T00:23:15;111.74;38.81;117.96;;
46746;Laerm;32493;50.514;9.678;2022-11-20T00:25:20;111.26;33.49;115.76;;
46746;Laerm;32493;50.514;9.678;2022-11-20T00:27:28;111.61;41.34;117.73;;
46746;Laerm;32493;50.514;9.678;2022-11-20T00:29:33;111.43;34.94;116.25;;
46746;Laerm;32493;50.514;9.678;2022-11-20T00:31:38;110.97;41.18;114.83;;
46746;Laerm;32493;50.514;9.678;2022-11-20T00:33:44;111.29;35.33;116.29;;
46746;Laerm;32493;50.514;9.678;2022-11-20T00:35:50;111.02;39.89;119.05;;
46746;Laerm;32493;50.514;9.678;2022-11-20T00:37:56;110.59;44.58;115.57;;
46746;Laerm;32493;50.514;9.678;2022-11-20T00:40:01;110.68;42.06;115.91;;
46746;Laerm;32493;50.514;9.678;2022-11-20T00:42:06;110.81;40.34;115.01;;
46746;Laerm;32493;50.514;9.678;2022-11-20T00:44:14;111.46;31.22;119.27;;
46746;Laerm;32493;50.514;9.678;2022-11-20T00:46:21;113.38;36.58;120.11;;
46746;Laerm;32493;50.514;9.678;2022-11-20T00:48:27;113.44;40.05;119.05;;
46746;Laerm;32493;50.514;9.678;2022-11-20T00:50:32;113.29;38.81;118.95;;
46746;Laerm;32493;50.514;9.678;2022-11-20T00:52:37;112.93;28.92;119.34;;
46746;Laerm;32493;50.514;9.678;2022-11-20T00:54:42;114.14;42.16;119.59;;
46746;Laerm;32493;50.514;9.678;2022-11-20T00:56:48;114.03;34.85;119.64;;
46746;Laerm;32493;50.514;9.678;2022-11-20T00:58:53;114.08;38.22;119.69;;
46746;Laerm;32493;50.514;9.678;2022-11-20T01:01:06;113.95;41.29;119.46;;
46746;Laerm;32493;50.514;9.678;2022-11-20T01:03:12;114.39;34.75;120.08;;
46746;Laerm;32493;50.514;9.678;2022-11-20T01:05:17;114.15;38.73;120.42;;
46746;Laerm;32493;50.514;9.678;2022-11-20T01:07:22;113.36;47.16;119.35;;
46746;Laerm;32493;50.514;9.678;2022-11-20T01:09:27;114.42;32.58;119.83;;
46746;Laerm;32493;50.514;9.678;2022-11-20T01:11:35;114.70;40.63;119.70;;
46746;Laerm;32493;50.514;9.678;2022-11-20T01:13:43;115.06;43.92;120.22;;
46746;Laerm;32493;50.514;9.678;2022-11-20T01:15:49;115.30;40.82;120.48;;
46746;Laerm;32493;50.514;9.678;2022-11-20T01:17:57;115.64;43.17;120.42;;
46746;Laerm;32493;50.514;9.678;2022-11-20T01:20:03;115.95;33.33;120.60;;
46746;Laerm;32493;50.514;9.678;2022-11-20T01:22:08;116.33;42.15;120.63;;
46746;Laerm;32493;50.514;9.678;2022-11-20T01:24:15;116.41;65.21;120.60;;
46746;Laerm;32493;50.514;9.678;2022-11-20T01:26:24;115.53;30.87;120.73;;
46746;Laerm;32493;50.514;9.678;2022-11-20T01:28:30;116.10;31.13;120.33;;
46746;Laerm;32493;50.514;9.678;2022-11-20T01:30:35;116.23;30.93;120.69;;
46746;Laerm;32493;50.514;9.678;2022-11-20T01:32:41;116.13;52.46;120.54;;
46746;Laerm;32493;50.514;9.678;2022-11-20T01:34:49;116.37;48.01;120.49;;
46746;Laerm;32493;50.514;9.678;2022-11-20T01:36:54;116.33;34.92;120.70;;
46746;Laerm;32493;50.514;9.678;2022-11-20T01:39:03;116.44;40.34;120.69;;
46746;Laerm;32493;50.514;9.678;2022-11-20T01:41:10;116.42;39.29;120.42;;
46746;Laerm;32493;50.514;9.678;2022-11-20T01:43:36;116.41;46.11;120.53;;
46746;Laerm;32493;50.514;9.678;2022-11-20T01:46:11;116.48;55.08;120.37;;
46746;Laerm;32493;50.514;9.678;2022-11-20T01:48:19;116.45;33.09;120.79;;
46746;Laerm;32493;50.514;9.678;2022-11-20T01:50:29;116.36;41.86;120.52;;
46746;Laerm;32493;50.514;9.678;2022-11-20T01:52:41;116.38;33.76;120.83;;
46746;Laerm;32493;50.514;9.678;2022-11-20T01:54:50;116.38;34.59;120.68;;
46746;Laerm;32493;50.514;9.678;2022-11-20T01:56:58;116.37;45.08;120.59;;
46746;Laerm;32493;50.514;9.678;2022-11-20T01:59:06;116.37;38.96;120.64;;
46746;Laerm;32493;50.514;9.678;2022-11-20T02:01:13;116.44;30.99;120.53;;
46746;Laerm;32493;50.514;9.678;2022-11-20T02:03:20;116.42;35.60;120.79;;
46746;Laerm;32493;50.514;9.678;2022-11-20T02:05:34;116.40;41.93;120.70;;
46746;Laerm;32493;50.514;9.678;2022-11-20T02:07:40;116.41;38.65;120.58;;
46746;Laerm;32493;50.514;9.678;2022-11-20T02:09:46;116.47;43.74;120.44;;
46746;Laerm;32493;50.514;9.678;2022-11-20T02:11:51;116.41;48.61;120.44;;
46746;Laerm;32493;50.514;9.678;2022-11-20T02:13:57;116.38;49.04;120.56;;
46746;Laerm;32493;50.514;9.678;2022-11-20T02:16:00;116.43;33.52;120.49;;
46746;Laerm;32493;50.514;9.678;2022-11-20T02:18:06;116.41;53.62;120.59;;
46746;Laerm;32493;50.514;9.678;2022-11-20T02:20:12;116.40;39.23;120.42;;
46746;Laerm;32493;50.514;9.678;2022-11-20T02:22:25;116.44;38.74;120.75;;
46746;Laerm;32493;50.514;9.678;2022-11-20T02:24:36;116.38;50.24;120.51;;
46746;Laerm;32493;50.514;9.678;2022-11-20T02:26:48;116.37;44.67;120.62;;
46746;Laerm;32493;50.514;9.678;2022-11-20T02:28:55;116.35;43.67;120.49;;
46746;Laerm;32493;50.514;9.678;2022-11-20T02:31:01;116.35;31.93;120.96;;
46746;Laerm;32493;50.514;9.678;2022-11-20T02:33:06;116.43;38.30;120.36;;
46746;Laerm;32493;50.514;9.678;2022-11-20T02:35:42;116.44;47.40;120.90;;
46746;Laerm;32493;50.514;9.678;2022-11-20T02:37:51;116.44;37.96;120.40;;
46746;Laerm;32493;50.514;9.678;2022-11-20T02:40:01;116.46;43.13;120.60;;
46746;Laerm;32493;50.514;9.678;2022-11-20T02:42:06;116.48;39.53;120.48;;
46746;Laerm;32493;50.514;9.678;2022-11-20T02:44:12;116.46;45.33;120.71;;
46746;Laerm;32493;50.514;9.678;2022-11-20T02:46:17;116.50;39.29;120.56;;
46746;Laerm;32493;50.514;9.678;2022-11-20T02:48:23;116.46;39.13;120.91;;
46746;Laerm;32493;50.514;9.678;2022-11-20T02:50:35;116.48;38.38;120.53;;
46746;Laerm;32493;50.514;9.678;2022-11-20T02:52:42;116.52;35.06;120.62;;
46746;Laerm;32493;50.514;9.678;2022-11-20T02:54:47;116.45;37.14;120.74;;
46746;Laerm;32493;50.514;9.678;2022-11-20T02:56:55;116.44;45.93;120.55;;
46746;Laerm;32493;50.514;9.678;2022-11-20T02:59:00;116.42;45.97;120.51;;
46746;Laerm;32493;50.514;9.678;2022-11-20T03:01:07;116.40;44.86;120.33;;
46746;Laerm;32493;50.514;9.678;2022-11-20T03:03:12;116.44;29.73;120.59;;
46746;Laerm;32493;50.514;9.678;2022-11-20T03:05:18;116.46;46.08;120.46;;
46746;Laerm;32493;50.514;9.678;2022-11-20T03:07:23;116.37;44.46;120.62;;
46746;Laerm;32493;50.514;9.678;2022-11-20T03:09:29;116.36;33.10;120.65;;
46746;Laerm;32493;50.514;9.678;2022-11-20T03:11:34;116.37;41.74;120.95;;
46746;Laerm;32493;50.514;9.678;2022-11-20T03:13:42;116.40;37.45;120.55;;
46746;Laerm;32493;50.514;9.678;2022-11-20T03:15:48;116.42;37.02;120.82;;
46746;Laerm;32493;50.514;9.678;2022-11-20T03:17:54;116.38;41.35;120.60;;
46746;Laerm;32493;50.514;9.678;2022-11-20T03:19:59;116.30;34.73;120.71;;
46746;Laerm;32493;50.514;9.678;2022-11-20T03:22:05;116.36;42.54;120.63;;
46746;Laerm;32493;50.514;9.678;2022-11-20T03:24:10;116.41;31.47;120.86;;
46746;Laerm;32493;50.514;9.678;2022-11-20T03:26:18;116.29;39.13;120.50;;
46746;Laerm;32493;50.514;9.678;2022-11-20T03:28:24;116.35;40.52;120.62;;
46746;Laerm;32493;50.514;9.678;2022-11-20T03:30:32;116.36;31.78;120.36;;
46746;Laerm;32493;50.514;9.678;2022-11-20T03:32:38;116.37;40.48;120.69;;
46746;Laerm;32493;50.514;9.678;2022-11-20T03:34:43;116.38;42.07;120.61;;
46746;Laerm;32493;50.514;9.678;2022-11-20T03:36:48;116.23;40.87;120.74;;
46746;Laerm;32493;50.514;9.678;2022-11-20T03:38:55;116.07;36.09;120.51;;
46746;Laerm;32493;50.514;9.678;2022-11-20T03:41:03;115.87;36.72;120.42;;
46746;Laerm;32493;50.514;9.678;2022-11-20T03:43:10;115.67;36.62;120.62;;
46746;Laerm;32493;50.514;9.678;2022-11-20T03:45:16;115.34;36.54;120.53;;
46746;Laerm;32493;50.514;9.678;2022-11-20T03:47:25;115.06;37.05;120.62;;
46746;Laerm;32493;50.514;9.678;2022-11-20T03:49:31;114.97;36.42;120.11;;
46746;Laerm;32493;50.514;9.678;2022-11-20T03:51:36;114.90;36.49;120.30;;
46746;Laerm;32493;50.514;9.678;2022-11-20T03:53:45;114.95;36.18;120.46;;
46746;Laerm;32493;50.514;9.678;2022-11-20T03:55:51;114.71;36.51;120.33;;
46746;Laerm;32493;50.514;9.678;2022-11-20T03:57:56;114.66;35.98;120.58;;
46746;Laerm;32493;50.514;9.678;2022-11-20T04:00:02;114.77;36.21;120.50;;
46746;Laerm;32493;50.514;9.678;2022-11-20T04:02:08;114.84;34.27;120.32;;
46746;Laerm;32493;50.514;9.678;2022-11-20T04:04:15;114.98;36.20;120.28;;
46746;Laerm;32493;50.514;9.678;2022-11-20T04:06:22;115.65;37.10;120.60;;
46746;Laerm;32493;50.514;9.678;2022-11-20T04:08:28;115.27;35.85;120.57;;
46746;Laerm;32493;50.514;9.678;2022-11-20T04:10:34;115.30;36.37;120.66;;
46746;Laerm;32493;50.514;9.678;2022-11-20T04:12:40;115.59;36.26;120.55;;
46746;Laerm;32493;50.514;9.678;2022-11-20T04:14:45;115.39;36.17;120.48;;
46746;Laerm;32493;50.514;9.678;2022-11-20T04:16:50;115.39;36.35;120.80;;
46746;Laerm;32493;50.514;9.678;2022-11-20T04:18:58;115.93;36.42;120.74;;
46746;Laerm;32493;50.514;9.678;2022-11-20T04:21:07;116.02;36.51;120.76;;
46746;Laerm;32493;50.514;9.678;2022-11-20T04:23:12;115.99;37.42;120.52;;
46746;Laerm;32493;50.514;9.678;2022-11-20T04:25:17;116.13;33.95;120.69;;
46746;Laerm;32493;50.514;9.678;2022-11-20T04:27:22;116.16;39.17;120.36;;
46746;Laerm;32493;50.514;9.678;2022-11-20T04:29:28;116.27;37.89;120.68;;
46746;Laerm;32493;50.514;9.678;2022-11-20T04:31:34;116.37;41.73;120.43;;
46746;Laerm;32493;50.514;9.678;2022-11-20T04:33:40;116.42;39.71;120.43;;
46746;Laerm;32493;50.514;9.678;2022-11-20T04:35:47;116.48;38.86;120.87;;
46746;Laerm;32493;50.514;9.678;2022-11-20T04:37:55;116.42;42.49;120.50;;
46746;Laerm;32493;50.514;9.678;2022-11-20T04:40:00;116.48;31.56;120.50;;
46746;Laerm;32493;50.514;9.678;2022-11-20T04:42:05;116.48;32.38;120.56;;
46746;Laerm;32493;50.514;9.678;2022-11-20T04:44:23;116.45;50.80;120.50;;
46746;Laerm;32493;50.514;9.678;2022-11-20T04:46:30;116.45;37.76;120.56;;
46746;Laerm;32493;50.514;9.678;2022-11-20T04:48:35;116.40;39.16;120.45;;
46746;Laerm;32493;50.514;9.678;2022-11-20T04:50:40;116.45;47.37;120.60;;
46746;Laerm;32493;50.514;9.678;2022-11-20T04:52:46;116.37;52.12;120.55;;
46746;Laerm;32493;50.514;9.678;2022-11-20T04:54:54;116.52;35.11;120.47;;
46746;Laerm;32493;50.514;9.678;2022-11-20T04:56:59;116.36;33.61;120.57;;
46746;Laerm;32493;50.514;9.678;2022-11-20T04:59:04;116.54;44.07;120.48;;
46746;Laerm;32493;50.514;9.678;2022-11-20T05:01:12;116.57;39.77;120.51;;
46746;Laerm;32493;50.514;9.678;2022-11-20T05:03:17;116.47;46.77;120.64;;
46746;Laerm;32493;50.514;9.678;2022-11-20T05:05:23;116.48;41.48;120.63;;
46746;Laerm;32493;50.514;9.678;2022-11-20T05:07:28;116.39;37.10;120.54;;
46746;Laerm;32493;50.514;9.678;2022-11-20T05:09:33;116.49;46.05;120.49;;
46746;Laerm;32493;50.514;9.678;2022-11-20T05:11:41;116.45;40.66;120.59;;
46746;Laerm;32493;50.514;9.678;2022-11-20T05:13:52;116.49;52.58;120.56;;
46746;Laerm;32493;50.514;9.678;2022-11-20T05:16:02;116.47;38.14;120.60;;
46746;Laerm;32493;50.514;9.678;2022-11-20T05:18:07;116.47;48.08;120.52;;
46746;Laerm;32493;50.514;9.678;2022-11-20T05:20:13;116.47;32.93;120.52;;
46746;Laerm;32493;50.514;9.678;2022-11-20T05:22:18;116.43;42.66;120.46;;
46746;Laerm;32493;50.514;9.678;2022-11-20T05:24:24;116.50;45.40;120.36;;
46746;Laerm;32493;50.514;9.678;2022-11-20T05:26:29;116.45;38.86;120.34;;
46746;Laerm;32493;50.514;9.678;2022-11-20T05:28:37;116.51;50.37;120.78;;
46746;Laerm;32493;50.514;9.678;2022-11-20T05:30:43;116.48;37.70;120.68;;
46746;Laerm;32493;50.514;9.678;2022-11-20T05:32:48;116.53;42.82;120.54;;
46746;Laerm;32493;50.514;9.678;2022-11-20T05:34:53;116.47;40.72;120.58;;
46746;Laerm;32493;50.514;9.678;2022-11-20T05:36:59;116.46;39.96;120.58;;
46746;Laerm;32493;50.514;9.678;2022-11-20T05:39:04;116.46;35.15;120.59;;
46746;Laerm;32493;50.514;9.678;2022-11-20T05:41:12;116.52;36.54;120.63;;
46746;Laerm;32493;50.514;9.678;2022-11-20T05:43:17;116.43;48.05;120.54;;
46746;Laerm;32493;50.514;9.678;2022-11-20T05:45:25;116.51;34.25;120.48;;
46746;Laerm;32493;50.514;9.678;2022-11-20T05:47:32;116.56;44.41;120.70;;
46746;Laerm;32493;50.514;9.678;2022-11-20T05:49:38;116.55;44.80;120.55;;
46746;Laerm;32493;50.514;9.678;2022-11-20T05:51:43;116.47;46.38;120.64;;
46746;Laerm;32493;50.514;9.678;2022-11-20T05:53:48;116.37;47.35;120.72;;
46746;Laerm;32493;50.514;9.678;2022-11-20T05:55:58;116.36;33.99;120.70;;
46746;Laerm;32493;50.514;9.678;2022-11-20T05:58:03;116.47;33.04;120.66;;
46746;Laerm;32493;50.514;9.678;2022-11-20T06:00:10;116.54;37.05;120.75;;
46746;Laerm;32493;50.514;9.678;2022-11-20T06:02:18;116.45;45.69;120.61;;
46746;Laerm;32493;50.514;9.678;2022-11-20T06:04:23;116.42;38.88;120.58;;
46746;Laerm;32493;50.514;9.678;2022-11-20T06:06:28;116.47;37.31;120.81;;
46746;Laerm;32493;50.514;9.678;2022-11-20T06:08:34;116.54;33.45;120.50;;
46746;Laerm;32493;50.514;9.678;2022-11-20T06:10:39;116.54;41.56;120.76;;
46746;Laerm;32493;50.514;9.678;2022-11-20T06:12:45;116.64;36.58;120.48;;
46746;Laerm;32493;50.514;9.678;2022-11-20T06:14:50;116.53;38.85;120.66;;
46746;Laerm;32493;50.514;9.678;2022-11-20T06:16:55;116.56;41.03;120.66;;
46746;Laerm;32493;50.514;9.678;2022-11-20T06:19:03;116.56;39.56;120.65;;
46746;Laerm;32493;50.514;9.678;2022-11-20T06:21:11;116.52;47.46;120.59;;
46746;Laerm;32493;50.514;9.678;2022-11-20T06:23:16;116.60;39.26;120.54;;
46746;Laerm;32493;50.514;9.678;2022-11-20T06:25:21;116.54;40.89;120.48;;
46746;Laerm;32493;50.514;9.678;2022-11-20T06:27:27;116.54;48.89;120.62;;
46746;Laerm;32493;50.514;9.678;2022-11-20T06:29:32;116.52;34.39;120.60;;
46746;Laerm;32493;50.514;9.678;2022-11-20T06:31:37;116.56;32.80;120.53;;
46746;Laerm;32493;50.514;9.678;2022-11-20T06:33:45;116.48;42.35;120.43;;
46746;Laerm;32493;50.514;9.678;2022-11-20T06:35:56;116.49;51.04;120.34;;
46746;Laerm;32493;50.514;9.678;2022-11-20T06:38:08;116.51;38.61;120.92;;
46746;Laerm;32493;50.514;9.678;2022-11-20T06:40:13;116.55;30.95;120.62;;
46746;Laerm;32493;50.514;9.678;2022-11-20T06:42:19;116.47;41.79;120.72;;
46746;Laerm;32493;50.514;9.678;2022-11-20T06:44:24;116.52;32.84;120.75;;
46746;Laerm;32493;50.514;9.678;2022-11-20T06:46:30;116.56;49.71;120.58;;
46746;Laerm;32493;50.514;9.678;2022-11-20T06:48:35;116.38;40.89;120.70;;
46746;Laerm;32493;50.514;9.678;2022-11-20T06:50:40;116.58;47.92;120.64;;
46746;Laerm;32493;50.514;9.678;2022-11-20T06:52:48;116.44;49.20;120.73;;
46746;Laerm;32493;50.514;9.678;2022-11-20T06:54:53;116.50;32.12;120.59;;
46746;Laerm;32493;50.514;9.678;2022-11-20T06:57:01;116.53;30.95;120.80;;
46746;Laerm;32493;50.514;9.678;2022-11-20T06:59:07;116.52;36.68;120.46;;
46746;Laerm;32493;50.514;9.678;2022-11-20T07:01:17;116.56;42.14;120.45;;
46746;Laerm;32493;50.514;9.678;2022-11-20T07:03:22;116.50;38.41;120.66;;
46746;Laerm;32493;50.514;9.678;2022-11-20T07:05:27;116.48;34.94;120.48;;
46746;Laerm;32493;50.514;9.678;2022-11-20T07:07:32;116.53;49.15;120.39;;
46746;Laerm;32493;50.514;9.678;2022-11-20T07:09:40;116.51;44.84;120.50;;
46746;Laerm;32493;50.514;9.678;2022-11-20T07:11:45;116.60;40.75;120.39;;
46746;Laerm;32493;50.514;9.678;2022-11-20T07:13:50;116.53;39.02;120.72;;
46746;Laerm;32493;50.514;9.678;2022-11-20T07:15:59;116.52;39.67;120.61;;
46746;Laerm;32493;50.514;9.678;2022-11-20T07:18:06;116.55;45.45;120.94;;
46746;Laerm;32493;50.514;9.678;2022-11-20T07:20:12;116.60;43.05;120.58;;
46746;Laerm;32493;50.514;9.678;2022-11-20T07:22:18;116.53;46.88;120.56;;
46746;Laerm;32493;50.514;9.678;2022-11-20T07:24:23;116.61;31.81;120.83;;
46746;Laerm;32493;50.514;9.678;2022-11-20T07:26:31;116.49;40.60;120.49;;
46746;Laerm;32493;50.514;9.678;2022-11-20T07:28:37;116.50;39.97;120.60;;
46746;Laerm;32493;50.514;9.678;2022-11-20T07:30:43;116.60;50.27;120.67;;
46746;Laerm;32493;50.514;9.678;2022-11-20T07:32:55;116.56;48.95;120.37;;
46746;Laerm;32493;50.514;9.678;2022-11-20T07:35:01;116.63;63.36;120.58;;
46746;Laerm;32493;50.514;9.678;2022-11-20T07:37:06;116.55;36.87;120.60;;
46746;Laerm;32493;50.514;9.678;2022-11-20T07:39:11;116.58;43.93;120.53;;
46746;Laerm;32493;50.514;9.678;2022-11-20T07:41:17;116.58;44.19;120.73;;
46746;Laerm;32493;50.514;9.678;2022-11-20T07:43:24;116.64;46.51;120.83;;
46746;Laerm;32493;50.514;9.678;2022-11-20T07:45:29;116.66;43.65;120.79;;
46746;Laerm;32493;50.514;9.678;2022-11-20T07:47:37;116.59;51.82;120.91;;
46746;Laerm;32493;50.514;9.678;2022-11-20T07:49:43;116.60;44.54;120.58;;
46746;Laerm;32493;50.514;9.678;2022-11-20T07:51:50;116.68;44.52;120.89;;
46746;Laerm;32493;50.514;9.678;2022-11-20T07:53:55;116.61;39.13;120.70;;
46746;Laerm;32493;50.514;9.678;2022-11-20T07:56:01;116.65;41.27;120.67;;
46746;Laerm;32493;50.514;9.678;2022-11-20T07:58:08;116.67;51.91;120.73;;
46746;Laerm;32493;50.514;9.678;2022-11-20T08:00:17;116.74;43.43;120.77;;
46746;Laerm;32493;50.514;9.678;2022-11-20T08:02:22;116.68;47.23;120.73;;
46746;Laerm;32493;50.514;9.678;2022-11-20T08:04:28;116.60;46.03;120.51;;
46746;Laerm;32493;50.514;9.678;2022-11-20T08:06:35;116.66;33.08;120.53;;
46746;Laerm;32493;50.514;9.678;2022-11-20T08:08:41;116.64;41.88;120.71;;
46746;Laerm;32493;50.514;9.678;2022-11-20T08:10:46;116.76;37.97;120.64;;
46746;Laerm;32493;50.514;9.678;2022-11-20T08:12:53;116.67;42.09;120.76;;
46746;Laerm;32493;50.514;9.678;2022-11-20T08:15:11;116.69;32.70;121.02;;
46746;Laerm;32493;50.514;9.678;2022-11-20T08:17:19;116.59;44.54;120.50;;
46746;Laerm;32493;50.514;9.678;2022-11-20T08:19:24;116.66;40.52;120.66;;
46746;Laerm;32493;50.514;9.678;2022-11-20T08:21:30;116.71;49.27;120.51;;
46746;Laerm;32493;50.514;9.678;2022-11-20T08:23:40;116.61;45.96;120.70;;
46746;Laerm;32493;50.514;9.678;2022-11-20T08:25:50;116.69;39.46;120.42;;
46746;Laerm;32493;50.514;9.678;2022-11-20T08:27:58;116.81;50.34;120.68;;
46746;Laerm;32493;50.514;9.678;2022-11-20T08:30:14;116.71;44.86;120.64;;
46746;Laerm;32493;50.514;9.678;2022-11-20T08:32:23;116.64;47.10;120.58;;
46746;Laerm;32493;50.514;9.678;2022-11-20T08:34:28;116.64;47.39;120.66;;
46746;Laerm;32493;50.514;9.678;2022-11-20T08:36:34;116.69;42.03;120.42;;
46746;Laerm;32493;50.514;9.678;2022-11-20T08:38:40;116.70;45.22;120.59;;
46746;Laerm;32493;50.514;9.678;2022-11-20T08:40:45;116.71;43.39;120.90;;
46746;Laerm;32493;50.514;9.678;2022-11-20T08:43:11;116.63;43.87;120.68;;
46746;Laerm;32493;50.514;9.678;2022-11-20T08:45:18;116.61;42.96;120.62;;
46746;Laerm;32493;50.514;9.678;2022-11-20T08:47:26;116.59;43.32;120.47;;
46746;Laerm;32493;50.514;9.678;2022-11-20T08:49:32;116.67;36.83;120.38;;
46746;Laerm;32493;50.514;9.678;2022-11-20T08:51:39;116.72;43.02;120.66;;
46746;Laerm;32493;50.514;9.678;2022-11-20T08:53:45;116.67;38.44;120.56;;
46746;Laerm;32493;50.514;9.678;2022-11-20T08:55:52;116.67;31.73;120.66;;
46746;Laerm;32493;50.514;9.678;2022-11-20T08:57:57;116.74;43.98;120.42;;
46746;Laerm;32493;50.514;9.678;2022-11-20T09:00:05;116.70;43.01;120.57;;
46746;Laerm;32493;50.514;9.678;2022-11-20T09:02:12;116.66;44.67;120.58;;
46746;Laerm;32493;50.514;9.678;2022-11-20T09:04:20;116.76;43.80;120.62;;
46746;Laerm;32493;50.514;9.678;2022-11-20T09:06:32;116.68;46.66;120.54;;
46746;Laerm;32493;50.514;9.678;2022-11-20T09:08:39;116.68;46.89;120.74;;
46746;Laerm;32493;50.514;9.678;2022-11-20T09:10:44;116.71;46.24;120.53;;
46746;Laerm;32493;50.514;9.678;2022-11-20T09:12:50;116.66;45.31;120.87;;
46746;Laerm;32493;50.514;9.678;2022-11-20T09:14:57;116.68;30.92;120.57;;
46746;Laerm;32493;50.514;9.678;2022-11-20T09:17:03;116.74;47.60;120.85;;
46746;Laerm;32493;50.514;9.678;2022-11-20T09:19:09;116.80;38.37;120.74;;
46746;Laerm;32493;50.514;9.678;2022-11-20T09:21:38;116.72;41.92;120.68;;
46746;Laerm;32493;50.514;9.678;2022-11-20T09:23:44;116.73;45.36;120.68;;
46746;Laerm;32493;50.514;9.678;2022-11-20T09:25:50;116.78;36.93;120.55;;
46746;Laerm;32493;50.514;9.678;2022-11-20T09:27:58;116.74;51.54;120.55;;
46746;Laerm;32493;50.514;9.678;2022-11-20T09:30:05;116.66;49.54;120.63;;
46746;Laerm;32493;50.514;9.678;2022-11-20T09:32:11;116.71;42.84;120.68;;
46746;Laerm;32493;50.514;9.678;2022-11-20T09:34:16;116.69;42.72;120.69;;
46746;Laerm;32493;50.514;9.678;2022-11-20T09:36:22;116.67;50.71;120.64;;
46746;Laerm;32493;50.514;9.678;2022-11-20T09:38:32;116.71;34.27;120.45;;
46746;Laerm;32493;50.514;9.678;2022-11-20T09:40:40;116.65;43.53;120.58;;
46746;Laerm;32493;50.514;9.678;2022-11-20T09:42:57;116.69;42.12;120.49;;
46746;Laerm;32493;50.514;9.678;2022-11-20T09:45:20;116.69;42.08;120.77;;
46746;Laerm;32493;50.514;9.678;2022-11-20T09:47:40;116.66;50.97;120.62;;
46746;Laerm;32493;50.514;9.678;2022-11-20T09:49:57;116.64;50.41;120.73;;
46746;Laerm;32493;50.514;9.678;2022-11-20T09:52:16;116.65;46.16;120.79;;
46746;Laerm;32493;50.514;9.678;2022-11-20T09:54:31;116.68;48.65;120.88;;
46746;Laerm;32493;50.514;9.678;2022-11-20T09:56:42;116.82;45.03;120.80;;
46746;Laerm;32493;50.514;9.678;2022-11-20T09:58:52;116.74;41.39;120.46;;
46746;Laerm;32493;50.514;9.678;2022-11-20T10:01:08;116.84;40.40;120.48;;
46746;Laerm;32493;50.514;9.678;2022-11-20T10:03:19;116.89;47.09;120.53;;
46746;Laerm;32493;50.514;9.678;2022-11-20T10:05:33;116.84;31.66;120.78;;
46746;Laerm;32493;50.514;9.678;2022-11-20T10:07:47;116.79;34.18;120.53;;
46746;Laerm;32493;50.514;9.678;2022-11-20T10:10:00;116.76;41.82;120.60;;
46746;Laerm;32493;50.514;9.678;2022-11-20T10:12:14;116.79;50.14;120.53;;
46746;Laerm;32493;50.514;9.678;2022-11-20T10:14:32;116.74;32.16;120.54;;
46746;Laerm;32493;50.514;9.678;2022-11-20T10:16:48;116.69;45.95;120.67;;
46746;Laerm;32493;50.514;9.678;2022-11-20T10:19:07;116.82;33.60;120.80;;
46746;Laerm;32493;50.514;9.678;2022-11-20T10:21:25;116.84;31.74;120.79;;
46746;Laerm;32493;50.514;9.678;2022-11-20T10:24:00;116.90;46.81;120.82;;
46746;Laerm;32493;50.514;9.678;2022-11-20T10:26:20;116.81;39.93;120.67;;
46746;Laerm;32493;50.514;9.678;2022-11-20T10:28:48;116.66;43.59;120.88;;
46746;Laerm;32493;50.514;9.678;2022-11-20T10:31:08;116.86;39.49;120.59;;
46746;Laerm;32493;50.514;9.678;2022-11-20T10:33:19;116.80;46.93;120.89;;
46746;Laerm;32493;50.514;9.678;2022-11-20T10:35:34;116.72;40.71;120.76;;
46746;Laerm;32493;50.514;9.678;2022-11-20T10:37:44;116.85;46.05;120.78;;
46746;Laerm;32493;50.514;9.678;2022-11-20T10:40:00;116.79;31.97;120.70;;
46746;Laerm;32493;50.514;9.678;2022-11-20T10:42:14;116.76;46.70;120.57;;
46746;Laerm;32493;50.514;9.678;2022-11-20T10:44:26;116.67;51.03;120.53;;
46746;Laerm;32493;50.514;9.678;2022-11-20T10:46:45;116.85;46.07;120.76;;
46746;Laerm;32493;50.514;9.678;2022-11-20T10:48:51;116.84;40.29;120.54;;
46746;Laerm;32493;50.514;9.678;2022-11-20T10:51:10;116.70;38.85;120.60;;
46746;Laerm;32493;50.514;9.678;2022-11-20T10:55:57;116.81;44.23;120.69;;
46746;Laerm;32493;50.514;9.678;2022-11-20T10:58:13;116.85;49.22;120.66;;
46746;Laerm;32493;50.514;9.678;2022-11-20T11:00:19;116.93;45.38;120.78;;
46746;Laerm;32493;50.514;9.678;2022-11-20T11:02:33;116.76;39.29;120.68;;
46746;Laerm;32493;50.514;9.678;2022-11-20T11:04:45;116.76;36.64;120.92;;
46746;Laerm;32493;50.514;9.678;2022-11-20T11:06:52;116.72;49.74;120.79;;
46746;Laerm;32493;50.514;9.678;2022-11-20T11:09:04;116.87;54.46;120.77;;
46746;Laerm;32493;50.514;9.678;2022-11-20T11:11:21;116.78;47.65;120.74;;
46746;Laerm;32493;50.514;9.678;2022-11-20T11:13:30;116.70;45.61;120.63;;
46746;Laerm;32493;50.514;9.678;2022-11-20T11:15:38;117.03;32.31;120.70;;
46746;Laerm;32493;50.514;9.678;2022-11-20T11:17:47;117.02;47.89;120.71;;
46746;Laerm;32493;50.514;9.678;2022-11-20T11:20:01;117.03;37.02;120.68;;
46746;Laerm;32493;50.514;9.678;2022-11-20T11:22:16;117.02;49.56;120.75;;
46746;Laerm;32493;50.514;9.678;2022-11-20T11:24:23;116.88;50.46;120.55;;
46746;Laerm;32493;50.514;9.678;2022-11-20T11:26:59;116.94;46.79;120.72;;
46746;Laerm;32493;50.514;9.678;2022-11-20T11:29:18;116.97;55.40;120.61;;
46746;Laerm;32493;50.514;9.678;2022-11-20T11:31:26;116.98;48.49;120.61;;
46746;Laerm;32493;50.514;9.678;2022-11-20T11:33:32;116.88;47.67;120.61;;
46746;Laerm;32493;50.514;9.678;2022-11-20T11:35:46;116.93;63.76;120.75;;
46746;Laerm;32493;50.514;9.678;2022-11-20T11:38:05;116.90;48.76;120.50;;
46746;Laerm;32493;50.514;9.678;2022-11-20T11:40:12;116.91;50.74;120.52;;